sensor_id;sensor_type;location;lat;lon;timestamp;P1;durP1;ratioP1;P2;durP2;ratioP2
69789;SDS011;57064;52.046;4.800;2024-03-23T00:54:35;10.15;;;4.13;;
69789;SDS011;57064;52.046;4.800;2024-03-23T00:57:02;13.40;;;4.97;;
69789;SDS011;57064;52.046;4.800;2024-03-23T00:59:29;12.68;;;4.07;;
69789;SDS011;57064;52.046;4.800;2024-03-23T01:02:01;21.23;;;5.20;;
69789;SDS011;57064;52.046;4.800;2024-03-23T01:06:54;11.00;;;4.20;;
69789;SDS011;57064;52.046;4.800;2024-03-23T01:09:20;20.30;;;4.50;;
69789;SDS011;57064;52.046;4.800;2024-03-23T01:11:47;15.82;;;4.50;;
69789;SDS011;57064;52.046;4.800;2024-03-23T01:14:13;18.08;;;4.00;;
69789;SDS011;57064;52.046;4.800;2024-03-23T01:16:39;24.23;;;4.00;;
69789;SDS011;57064;52.046;4.800;2024-03-23T01:19:05;16.98;;;4.80;;
69789;SDS011;57064;52.046;4.800;2024-03-23T01:21:31;12.77;;;3.38;;
69789;SDS011;57064;52.046;4.800;2024-03-23T01:23:57;20.30;;;4.25;;
69789;SDS011;57064;52.046;4.800;2024-03-23T01:26:24;16.90;;;3.95;;
69789;SDS011;57064;52.046;4.800;2024-03-23T01:28:49;18.75;;;4.65;;
69789;SDS011;57064;52.046;4.800;2024-03-23T01:31:16;15.10;;;4.13;;
69789;SDS011;57064;52.046;4.800;2024-03-23T01:33:42;15.13;;;3.70;;
69789;SDS011;57064;52.046;4.800;2024-03-23T01:36:08;16.80;;;3.33;;
69789;SDS011;57064;52.046;4.800;2024-03-23T01:38:35;19.50;;;3.80;;
69789;SDS011;57064;52.046;4.800;2024-03-23T01:41:01;10.55;;;3.33;;
69789;SDS011;57064;52.046;4.800;2024-03-23T01:43:27;12.27;;;3.50;;
69789;SDS011;57064;52.046;4.800;2024-03-23T01:45:53;15.15;;;4.13;;
69789;SDS011;57064;52.046;4.800;2024-03-23T01:48:20;15.15;;;4.15;;
69789;SDS011;57064;52.046;4.800;2024-03-23T01:50:46;15.60;;;3.60;;
69789;SDS011;57064;52.046;4.800;2024-03-23T01:53:13;23.55;;;4.90;;
69789;SDS011;57064;52.046;4.800;2024-03-23T01:55:42;13.63;;;3.08;;
69789;SDS011;57064;52.046;4.800;2024-03-23T01:58:08;21.02;;;4.30;;
69789;SDS011;57064;52.046;4.800;2024-03-23T02:00:34;15.93;;;4.32;;
69789;SDS011;57064;52.046;4.800;2024-03-23T02:03:01;12.50;;;3.05;;
69789;SDS011;57064;52.046;4.800;2024-03-23T02:05:28;18.58;;;3.10;;
69789;SDS011;57064;52.046;4.800;2024-03-23T02:07:54;9.20;;;2.78;;
69789;SDS011;57064;52.046;4.800;2024-03-23T02:10:20;10.13;;;2.30;;
69789;SDS011;57064;52.046;4.800;2024-03-23T02:12:46;15.15;;;2.53;;
69789;SDS011;57064;52.046;4.800;2024-03-23T02:15:13;16.25;;;2.08;;
69789;SDS011;57064;52.046;4.800;2024-03-23T02:17:39;11.23;;;3.30;;
69789;SDS011;57064;52.046;4.800;2024-03-23T02:20:05;8.02;;;2.10;;
69789;SDS011;57064;52.046;4.800;2024-03-23T02:22:39;12.60;;;2.28;;
69789;SDS011;57064;52.046;4.800;2024-03-23T02:25:05;8.90;;;1.88;;
69789;SDS011;57064;52.046;4.800;2024-03-23T02:27:32;11.55;;;2.28;;
69789;SDS011;57064;52.046;4.800;2024-03-23T02:30:00;19.95;;;3.50;;
69789;SDS011;57064;52.046;4.800;2024-03-23T02:32:28;7.40;;;2.42;;
69789;SDS011;57064;52.046;4.800;2024-03-23T02:34:54;13.48;;;2.13;;
69789;SDS011;57064;52.046;4.800;2024-03-23T02:37:20;10.30;;;2.20;;
69789;SDS011;57064;52.046;4.800;2024-03-23T02:39:46;17.00;;;2.17;;
69789;SDS011;57064;52.046;4.800;2024-03-23T02:42:12;9.07;;;1.80;;
69789;SDS011;57064;52.046;4.800;2024-03-23T02:44:38;12.55;;;2.33;;
69789;SDS011;57064;52.046;4.800;2024-03-23T02:47:04;12.23;;;1.98;;
69789;SDS011;57064;52.046;4.800;2024-03-23T02:49:30;9.55;;;2.38;;
69789;SDS011;57064;52.046;4.800;2024-03-23T02:51:56;12.32;;;1.90;;
69789;SDS011;57064;52.046;4.800;2024-03-23T02:54:23;11.32;;;1.80;;
69789;SDS011;57064;52.046;4.800;2024-03-23T02:56:49;18.00;;;1.98;;
69789;SDS011;57064;52.046;4.800;2024-03-23T02:59:15;8.90;;;1.75;;
69789;SDS011;57064;52.046;4.800;2024-03-23T03:01:41;5.88;;;1.23;;
69789;SDS011;57064;52.046;4.800;2024-03-23T03:04:07;13.63;;;1.30;;
69789;SDS011;57064;52.046;4.800;2024-03-23T03:06:33;7.32;;;2.05;;
69789;SDS011;57064;52.046;4.800;2024-03-23T03:08:59;10.63;;;1.27;;
69789;SDS011;57064;52.046;4.800;2024-03-23T03:11:25;7.50;;;1.73;;
69789;SDS011;57064;52.046;4.800;2024-03-23T03:13:51;9.02;;;1.20;;
69789;SDS011;57064;52.046;4.800;2024-03-23T03:16:17;10.63;;;1.48;;
69789;SDS011;57064;52.046;4.800;2024-03-23T03:18:44;10.50;;;1.65;;
69789;SDS011;57064;52.046;4.800;2024-03-23T03:21:11;8.95;;;1.58;;
69789;SDS011;57064;52.046;4.800;2024-03-23T03:23:38;7.05;;;1.67;;
69789;SDS011;57064;52.046;4.800;2024-03-23T03:26:04;8.43;;;1.52;;
69789;SDS011;57064;52.046;4.800;2024-03-23T03:28:31;11.88;;;1.63;;
69789;SDS011;57064;52.046;4.800;2024-03-23T03:30:58;10.48;;;1.65;;
69789;SDS011;57064;52.046;4.800;2024-03-23T03:33:26;7.68;;;1.70;;
69789;SDS011;57064;52.046;4.800;2024-03-23T03:35:54;9.48;;;1.60;;
69789;SDS011;57064;52.046;4.800;2024-03-23T03:38:20;10.50;;;1.40;;
69789;SDS011;57064;52.046;4.800;2024-03-23T03:40:46;5.38;;;1.40;;
69789;SDS011;57064;52.046;4.800;2024-03-23T03:43:13;7.50;;;1.85;;
69789;SDS011;57064;52.046;4.800;2024-03-23T03:45:39;11.27;;;1.48;;
69789;SDS011;57064;52.046;4.800;2024-03-23T03:48:05;8.52;;;1.23;;
69789;SDS011;57064;52.046;4.800;2024-03-23T03:50:32;8.40;;;2.20;;
69789;SDS011;57064;52.046;4.800;2024-03-23T03:52:58;8.90;;;1.13;;
69789;SDS011;57064;52.046;4.800;2024-03-23T03:55:24;6.63;;;1.40;;
69789;SDS011;57064;52.046;4.800;2024-03-23T03:57:50;6.03;;;1.63;;
69789;SDS011;57064;52.046;4.800;2024-03-23T04:00:16;14.63;;;2.40;;
69789;SDS011;57064;52.046;4.800;2024-03-23T04:02:42;8.48;;;1.60;;
69789;SDS011;57064;52.046;4.800;2024-03-23T04:05:08;10.98;;;1.60;;
69789;SDS011;57064;52.046;4.800;2024-03-23T04:07:34;15.40;;;1.77;;
69789;SDS011;57064;52.046;4.800;2024-03-23T04:10:00;7.43;;;1.17;;
69789;SDS011;57064;52.046;4.800;2024-03-23T04:12:29;6.00;;;1.35;;
69789;SDS011;57064;52.046;4.800;2024-03-23T04:14:55;12.82;;;1.45;;
69789;SDS011;57064;52.046;4.800;2024-03-23T04:17:21;3.97;;;1.00;;
69789;SDS011;57064;52.046;4.800;2024-03-23T04:19:47;6.95;;;1.50;;
69789;SDS011;57064;52.046;4.800;2024-03-23T04:22:14;8.38;;;1.52;;
69789;SDS011;57064;52.046;4.800;2024-03-23T04:24:40;10.02;;;1.63;;
69789;SDS011;57064;52.046;4.800;2024-03-23T04:27:07;12.35;;;1.75;;
69789;SDS011;57064;52.046;4.800;2024-03-23T04:29:33;8.70;;;1.67;;
69789;SDS011;57064;52.046;4.800;2024-03-23T04:31:59;8.93;;;1.30;;
69789;SDS011;57064;52.046;4.800;2024-03-23T04:34:27;10.10;;;1.40;;
69789;SDS011;57064;52.046;4.800;2024-03-23T04:36:53;11.25;;;2.55;;
69789;SDS011;57064;52.046;4.800;2024-03-23T04:39:19;4.85;;;1.23;;
69789;SDS011;57064;52.046;4.800;2024-03-23T04:41:45;9.90;;;1.85;;
69789;SDS011;57064;52.046;4.800;2024-03-23T04:44:13;10.75;;;1.88;;
69789;SDS011;57064;52.046;4.800;2024-03-23T04:46:39;5.32;;;1.20;;
69789;SDS011;57064;52.046;4.800;2024-03-23T04:49:05;5.63;;;1.80;;
69789;SDS011;57064;52.046;4.800;2024-03-23T04:51:35;5.07;;;1.00;;
69789;SDS011;57064;52.046;4.800;2024-03-23T04:54:02;13.53;;;1.53;;
69789;SDS011;57064;52.046;4.800;2024-03-23T04:56:29;5.45;;;1.60;;
69789;SDS011;57064;52.046;4.800;2024-03-23T04:58:56;6.95;;;1.20;;
69789;SDS011;57064;52.046;4.800;2024-03-23T05:01:26;5.07;;;1.27;;
69789;SDS011;57064;52.046;4.800;2024-03-23T05:03:53;6.97;;;1.30;;
69789;SDS011;57064;52.046;4.800;2024-03-23T05:06:19;8.75;;;1.80;;
69789;SDS011;57064;52.046;4.800;2024-03-23T05:08:45;12.68;;;1.73;;
69789;SDS011;57064;52.046;4.800;2024-03-23T05:11:11;5.30;;;1.60;;
69789;SDS011;57064;52.046;4.800;2024-03-23T05:13:37;10.48;;;1.33;;
69789;SDS011;57064;52.046;4.800;2024-03-23T05:16:03;5.30;;;1.42;;
69789;SDS011;57064;52.046;4.800;2024-03-23T05:18:30;4.40;;;1.48;;
69789;SDS011;57064;52.046;4.800;2024-03-23T05:20:56;5.72;;;1.30;;
69789;SDS011;57064;52.046;4.800;2024-03-23T05:23:23;12.32;;;1.88;;
69789;SDS011;57064;52.046;4.800;2024-03-23T05:25:50;5.03;;;1.58;;
69789;SDS011;57064;52.046;4.800;2024-03-23T05:28:17;5.15;;;1.70;;
69789;SDS011;57064;52.046;4.800;2024-03-23T05:30:43;10.07;;;2.03;;
69789;SDS011;57064;52.046;4.800;2024-03-23T05:33:15;5.40;;;1.60;;
69789;SDS011;57064;52.046;4.800;2024-03-23T05:35:41;8.25;;;1.73;;
69789;SDS011;57064;52.046;4.800;2024-03-23T05:38:08;6.25;;;1.50;;
69789;SDS011;57064;52.046;4.800;2024-03-23T05:40:35;9.80;;;1.70;;
69789;SDS011;57064;52.046;4.800;2024-03-23T05:43:05;8.43;;;2.20;;
69789;SDS011;57064;52.046;4.800;2024-03-23T05:45:31;4.68;;;1.55;;
69789;SDS011;57064;52.046;4.800;2024-03-23T05:47:58;7.38;;;1.48;;
69789;SDS011;57064;52.046;4.800;2024-03-23T05:50:24;4.93;;;1.40;;
69789;SDS011;57064;52.046;4.800;2024-03-23T05:52:50;10.50;;;1.67;;
69789;SDS011;57064;52.046;4.800;2024-03-23T05:55:17;11.23;;;2.05;;
69789;SDS011;57064;52.046;4.800;2024-03-23T05:57:43;7.43;;;2.03;;
69789;SDS011;57064;52.046;4.800;2024-03-23T06:00:10;5.93;;;2.05;;
69789;SDS011;57064;52.046;4.800;2024-03-23T06:02:41;10.10;;;1.60;;
69789;SDS011;57064;52.046;4.800;2024-03-23T06:05:11;6.30;;;2.65;;
69789;SDS011;57064;52.046;4.800;2024-03-23T06:07:37;14.82;;;2.45;;
69789;SDS011;57064;52.046;4.800;2024-03-23T06:10:04;9.82;;;2.30;;
69789;SDS011;57064;52.046;4.800;2024-03-23T06:12:31;9.35;;;2.50;;
69789;SDS011;57064;52.046;4.800;2024-03-23T06:14:57;7.65;;;2.40;;
69789;SDS011;57064;52.046;4.800;2024-03-23T06:17:23;13.50;;;2.13;;
69789;SDS011;57064;52.046;4.800;2024-03-23T06:19:49;3.35;;;1.52;;
69789;SDS011;57064;52.046;4.800;2024-03-23T06:22:16;9.25;;;2.08;;
69789;SDS011;57064;52.046;4.800;2024-03-23T06:24:42;7.00;;;2.63;;
69789;SDS011;57064;52.046;4.800;2024-03-23T06:27:09;11.70;;;2.63;;
69789;SDS011;57064;52.046;4.800;2024-03-23T06:29:35;8.82;;;2.83;;
69789;SDS011;57064;52.046;4.800;2024-03-23T06:32:01;7.43;;;1.90;;
69789;SDS011;57064;52.046;4.800;2024-03-23T06:34:28;7.45;;;2.35;;
69789;SDS011;57064;52.046;4.800;2024-03-23T06:36:55;8.82;;;3.65;;
69789;SDS011;57064;52.046;4.800;2024-03-23T06:39:21;14.90;;;2.53;;
69789;SDS011;57064;52.046;4.800;2024-03-23T06:41:53;6.65;;;2.15;;
69789;SDS011;57064;52.046;4.800;2024-03-23T06:44:19;7.15;;;1.48;;
69789;SDS011;57064;52.046;4.800;2024-03-23T06:46:46;7.15;;;1.80;;
69789;SDS011;57064;52.046;4.800;2024-03-23T06:49:14;10.40;;;2.88;;
69789;SDS011;57064;52.046;4.800;2024-03-23T06:51:40;16.58;;;1.52;;
69789;SDS011;57064;52.046;4.800;2024-03-23T06:54:06;7.40;;;1.80;;
69789;SDS011;57064;52.046;4.800;2024-03-23T06:56:33;8.45;;;2.20;;
69789;SDS011;57064;52.046;4.800;2024-03-23T06:58:59;5.95;;;2.15;;
69789;SDS011;57064;52.046;4.800;2024-03-23T07:01:25;6.10;;;1.52;;
69789;SDS011;57064;52.046;4.800;2024-03-23T07:03:53;6.03;;;1.65;;
69789;SDS011;57064;52.046;4.800;2024-03-23T07:06:20;12.05;;;1.95;;
69789;SDS011;57064;52.046;4.800;2024-03-23T07:08:46;12.38;;;2.05;;
69789;SDS011;57064;52.046;4.800;2024-03-23T07:11:12;4.60;;;1.48;;
69789;SDS011;57064;52.046;4.800;2024-03-23T07:13:45;7.03;;;1.77;;
69789;SDS011;57064;52.046;4.800;2024-03-23T07:16:11;12.75;;;1.80;;
69789;SDS011;57064;52.046;4.800;2024-03-23T07:18:38;10.82;;;2.85;;
69789;SDS011;57064;52.046;4.800;2024-03-23T07:21:04;9.50;;;2.97;;
69789;SDS011;57064;52.046;4.800;2024-03-23T07:23:32;11.10;;;1.80;;
69789;SDS011;57064;52.046;4.800;2024-03-23T07:28:25;4.57;;;1.40;;
69789;SDS011;57064;52.046;4.800;2024-03-23T07:31:05;11.25;;;1.75;;
69789;SDS011;57064;52.046;4.800;2024-03-23T07:33:44;10.25;;;1.73;;
69789;SDS011;57064;52.046;4.800;2024-03-23T07:36:12;7.70;;;2.42;;
69789;SDS011;57064;52.046;4.800;2024-03-23T07:38:41;9.15;;;1.75;;
69789;SDS011;57064;52.046;4.800;2024-03-23T07:41:10;2.97;;;1.50;;
69789;SDS011;57064;52.046;4.800;2024-03-23T07:43:42;9.18;;;1.70;;
69789;SDS011;57064;52.046;4.800;2024-03-23T07:46:09;18.35;;;2.70;;
69789;SDS011;57064;52.046;4.800;2024-03-23T07:48:37;8.80;;;2.03;;
69789;SDS011;57064;52.046;4.800;2024-03-23T07:51:17;8.50;;;1.95;;
69789;SDS011;57064;52.046;4.800;2024-03-23T07:53:46;11.70;;;1.75;;
69789;SDS011;57064;52.046;4.800;2024-03-23T07:56:13;16.40;;;1.77;;
69789;SDS011;57064;52.046;4.800;2024-03-23T07:58:40;6.03;;;1.73;;
69789;SDS011;57064;52.046;4.800;2024-03-23T08:01:11;6.18;;;1.50;;
69789;SDS011;57064;52.046;4.800;2024-03-23T08:03:40;5.00;;;0.93;;
69789;SDS011;57064;52.046;4.800;2024-03-23T08:08:42;13.50;;;2.83;;
69789;SDS011;57064;52.046;4.800;2024-03-23T08:11:10;10.30;;;2.30;;
69789;SDS011;57064;52.046;4.800;2024-03-23T08:13:37;5.63;;;1.50;;
69789;SDS011;57064;52.046;4.800;2024-03-23T08:16:05;8.10;;;1.30;;
69789;SDS011;57064;52.046;4.800;2024-03-23T08:18:31;7.50;;;1.27;;
69789;SDS011;57064;52.046;4.800;2024-03-23T08:20:58;5.45;;;1.55;;
69789;SDS011;57064;52.046;4.800;2024-03-23T08:23:25;5.18;;;1.30;;
69789;SDS011;57064;52.046;4.800;2024-03-23T08:25:52;3.42;;;1.00;;
69789;SDS011;57064;52.046;4.800;2024-03-23T08:28:31;7.68;;;1.40;;
69789;SDS011;57064;52.046;4.800;2024-03-23T08:31:00;11.80;;;1.50;;
69789;SDS011;57064;52.046;4.800;2024-03-23T08:33:27;5.78;;;1.23;;
69789;SDS011;57064;52.046;4.800;2024-03-23T08:35:55;11.98;;;1.85;;
69789;SDS011;57064;52.046;4.800;2024-03-23T08:38:23;10.05;;;1.77;;
69789;SDS011;57064;52.046;4.800;2024-03-23T08:43:37;7.95;;;1.58;;
69789;SDS011;57064;52.046;4.800;2024-03-23T08:46:13;8.48;;;1.50;;
69789;SDS011;57064;52.046;4.800;2024-03-23T08:48:41;5.35;;;1.25;;
69789;SDS011;57064;52.046;4.800;2024-03-23T08:51:09;5.97;;;2.03;;
69789;SDS011;57064;52.046;4.800;2024-03-23T08:53:36;7.57;;;1.27;;
69789;SDS011;57064;52.046;4.800;2024-03-23T08:56:02;2.67;;;1.17;;
69789;SDS011;57064;52.046;4.800;2024-03-23T08:58:31;13.75;;;2.25;;
69789;SDS011;57064;52.046;4.800;2024-03-23T09:01:08;7.13;;;2.03;;
69789;SDS011;57064;52.046;4.800;2024-03-23T09:03:35;7.22;;;1.50;;
69789;SDS011;57064;52.046;4.800;2024-03-23T09:06:02;5.85;;;1.80;;
69789;SDS011;57064;52.046;4.800;2024-03-23T09:08:32;8.70;;;2.40;;
69789;SDS011;57064;52.046;4.800;2024-03-23T09:11:03;6.78;;;1.98;;
69789;SDS011;57064;52.046;4.800;2024-03-23T09:13:33;4.25;;;1.25;;
69789;SDS011;57064;52.046;4.800;2024-03-23T09:16:00;8.27;;;2.13;;
69789;SDS011;57064;52.046;4.800;2024-03-23T09:18:26;5.90;;;1.40;;
69789;SDS011;57064;52.046;4.800;2024-03-23T09:20:52;4.28;;;2.10;;
69789;SDS011;57064;52.046;4.800;2024-03-23T09:23:20;3.95;;;1.23;;
69789;SDS011;57064;52.046;4.800;2024-03-23T09:25:46;10.73;;;1.15;;
69789;SDS011;57064;52.046;4.800;2024-03-23T09:28:12;5.57;;;1.63;;
69789;SDS011;57064;52.046;4.800;2024-03-23T09:30:38;10.45;;;1.45;;
69789;SDS011;57064;52.046;4.800;2024-03-23T09:33:08;9.40;;;1.60;;
69789;SDS011;57064;52.046;4.800;2024-03-23T09:35:39;7.53;;;1.30;;
69789;SDS011;57064;52.046;4.800;2024-03-23T09:38:07;7.65;;;1.73;;
69789;SDS011;57064;52.046;4.800;2024-03-23T09:40:39;13.55;;;2.35;;
69789;SDS011;57064;52.046;4.800;2024-03-23T09:43:09;6.40;;;1.35;;
69789;SDS011;57064;52.046;4.800;2024-03-23T09:45:38;7.70;;;1.88;;
69789;SDS011;57064;52.046;4.800;2024-03-23T09:48:08;4.13;;;1.20;;
69789;SDS011;57064;52.046;4.800;2024-03-23T09:50:44;7.30;;;1.52;;
69789;SDS011;57064;52.046;4.800;2024-03-23T09:53:11;4.53;;;1.25;;
69789;SDS011;57064;52.046;4.800;2024-03-23T09:55:39;8.70;;;1.40;;
69789;SDS011;57064;52.046;4.800;2024-03-23T09:58:06;4.60;;;1.38;;
69789;SDS011;57064;52.046;4.800;2024-03-23T10:00:33;13.98;;;2.15;;
69789;SDS011;57064;52.046;4.800;2024-03-23T10:03:00;1.85;;;0.80;;
69789;SDS011;57064;52.046;4.800;2024-03-23T10:05:27;10.68;;;1.27;;
69789;SDS011;57064;52.046;4.800;2024-03-23T10:07:54;5.53;;;1.55;;
69789;SDS011;57064;52.046;4.800;2024-03-23T10:10:22;5.43;;;1.25;;
69789;SDS011;57064;52.046;4.800;2024-03-23T10:12:51;8.32;;;1.17;;
69789;SDS011;57064;52.046;4.800;2024-03-23T10:15:22;7.07;;;1.50;;
69789;SDS011;57064;52.046;4.800;2024-03-23T10:17:52;6.55;;;1.27;;
69789;SDS011;57064;52.046;4.800;2024-03-23T10:20:22;6.20;;;1.45;;
69789;SDS011;57064;52.046;4.800;2024-03-23T10:22:49;11.98;;;1.80;;
69789;SDS011;57064;52.046;4.800;2024-03-23T10:25:22;7.05;;;1.30;;
69789;SDS011;57064;52.046;4.800;2024-03-23T10:27:58;5.45;;;1.25;;
69789;SDS011;57064;52.046;4.800;2024-03-23T10:30:33;4.78;;;0.77;;
69789;SDS011;57064;52.046;4.800;2024-03-23T10:33:11;6.60;;;1.10;;
69789;SDS011;57064;52.046;4.800;2024-03-23T10:35:38;14.38;;;2.45;;
69789;SDS011;57064;52.046;4.800;2024-03-23T10:38:05;10.05;;;1.55;;
69789;SDS011;57064;52.046;4.800;2024-03-23T10:40:47;11.68;;;1.60;;
69789;SDS011;57064;52.046;4.800;2024-03-23T10:43:13;6.63;;;1.73;;
69789;SDS011;57064;52.046;4.800;2024-03-23T10:45:41;10.02;;;1.85;;
69789;SDS011;57064;52.046;4.800;2024-03-23T10:48:08;9.43;;;1.90;;
69789;SDS011;57064;52.046;4.800;2024-03-23T10:50:34;5.82;;;1.23;;
69789;SDS011;57064;52.046;4.800;2024-03-23T10:53:00;5.75;;;1.15;;
69789;SDS011;57064;52.046;4.800;2024-03-23T10:55:27;3.33;;;1.17;;
69789;SDS011;57064;52.046;4.800;2024-03-23T10:57:59;3.17;;;1.05;;
69789;SDS011;57064;52.046;4.800;2024-03-23T11:00:25;5.80;;;1.05;;
69789;SDS011;57064;52.046;4.800;2024-03-23T11:02:53;6.97;;;1.45;;
69789;SDS011;57064;52.046;4.800;2024-03-23T11:10:26;4.78;;;1.05;;
69789;SDS011;57064;52.046;4.800;2024-03-23T11:12:55;5.78;;;1.27;;
69789;SDS011;57064;52.046;4.800;2024-03-23T11:15:21;11.20;;;1.50;;
69789;SDS011;57064;52.046;4.800;2024-03-23T11:18:06;9.73;;;1.42;;
69789;SDS011;57064;52.046;4.800;2024-03-23T11:20:34;7.63;;;1.45;;
69789;SDS011;57064;52.046;4.800;2024-03-23T11:23:02;6.78;;;1.45;;
69789;SDS011;57064;52.046;4.800;2024-03-23T11:25:29;5.85;;;1.42;;
69789;SDS011;57064;52.046;4.800;2024-03-23T11:27:56;5.78;;;1.38;;
69789;SDS011;57064;52.046;4.800;2024-03-23T11:30:24;10.20;;;2.30;;
69789;SDS011;57064;52.046;4.800;2024-03-23T11:32:52;19.02;;;1.85;;
69789;SDS011;57064;52.046;4.800;2024-03-23T11:38:12;6.95;;;1.15;;
69789;SDS011;57064;52.046;4.800;2024-03-23T11:40:45;6.22;;;1.30;;
69789;SDS011;57064;52.046;4.800;2024-03-23T11:45:39;6.47;;;1.52;;
69789;SDS011;57064;52.046;4.800;2024-03-23T11:48:13;11.10;;;1.45;;
69789;SDS011;57064;52.046;4.800;2024-03-23T11:50:43;5.95;;;2.20;;
69789;SDS011;57064;52.046;4.800;2024-03-23T11:53:14;7.07;;;1.30;;
69789;SDS011;57064;52.046;4.800;2024-03-23T11:55:59;6.50;;;1.05;;
69789;SDS011;57064;52.046;4.800;2024-03-23T11:58:26;7.47;;;1.55;;
69789;SDS011;57064;52.046;4.800;2024-03-23T12:00:55;4.43;;;0.93;;
69789;SDS011;57064;52.046;4.800;2024-03-23T12:03:22;5.25;;;1.48;;
69789;SDS011;57064;52.046;4.800;2024-03-23T12:05:54;5.60;;;1.30;;
69789;SDS011;57064;52.046;4.800;2024-03-23T12:08:36;5.30;;;1.15;;
69789;SDS011;57064;52.046;4.800;2024-03-23T12:11:07;8.70;;;1.13;;
69789;SDS011;57064;52.046;4.800;2024-03-23T12:13:35;6.75;;;1.13;;
69789;SDS011;57064;52.046;4.800;2024-03-23T12:16:18;4.57;;;0.80;;
69789;SDS011;57064;52.046;4.800;2024-03-23T12:18:48;8.65;;;1.67;;
69789;SDS011;57064;52.046;4.800;2024-03-23T12:21:16;6.50;;;1.17;;
69789;SDS011;57064;52.046;4.800;2024-03-23T12:23:42;6.78;;;0.95;;
69789;SDS011;57064;52.046;4.800;2024-03-23T12:26:13;7.38;;;1.40;;
69789;SDS011;57064;52.046;4.800;2024-03-23T12:28:42;10.45;;;0.80;;
69789;SDS011;57064;52.046;4.800;2024-03-23T12:31:08;10.35;;;1.25;;
69789;SDS011;57064;52.046;4.800;2024-03-23T12:33:35;11.68;;;1.38;;
69789;SDS011;57064;52.046;4.800;2024-03-23T12:36:02;11.43;;;1.17;;
69789;SDS011;57064;52.046;4.800;2024-03-23T12:38:31;4.60;;;1.13;;
69789;SDS011;57064;52.046;4.800;2024-03-23T12:40:57;11.25;;;1.80;;
69789;SDS011;57064;52.046;4.800;2024-03-23T12:43:25;7.97;;;1.10;;
69789;SDS011;57064;52.046;4.800;2024-03-23T12:45:51;2.92;;;0.57;;
69789;SDS011;57064;52.046;4.800;2024-03-23T12:48:17;8.57;;;2.20;;
69789;SDS011;57064;52.046;4.800;2024-03-23T12:50:43;4.68;;;1.23;;
69789;SDS011;57064;52.046;4.800;2024-03-23T12:53:09;14.60;;;4.68;;
69789;SDS011;57064;52.046;4.800;2024-03-23T12:55:35;8.15;;;2.97;;
69789;SDS011;57064;52.046;4.800;2024-03-23T12:58:01;11.07;;;1.25;;
69789;SDS011;57064;52.046;4.800;2024-03-23T13:00:28;4.55;;;1.27;;
69789;SDS011;57064;52.046;4.800;2024-03-23T13:02:54;13.80;;;1.90;;
69789;SDS011;57064;52.046;4.800;2024-03-23T13:05:20;11.68;;;2.22;;
69789;SDS011;57064;52.046;4.800;2024-03-23T13:07:46;6.50;;;2.40;;
69789;SDS011;57064;52.046;4.800;2024-03-23T13:10:12;7.07;;;1.40;;
69789;SDS011;57064;52.046;4.800;2024-03-23T13:12:39;11.18;;;1.48;;
69789;SDS011;57064;52.046;4.800;2024-03-23T13:15:07;3.95;;;1.35;;
69789;SDS011;57064;52.046;4.800;2024-03-23T13:17:34;3.33;;;0.80;;
69789;SDS011;57064;52.046;4.800;2024-03-23T13:20:00;7.57;;;1.40;;
69789;SDS011;57064;52.046;4.800;2024-03-23T13:22:26;7.13;;;1.58;;
69789;SDS011;57064;52.046;4.800;2024-03-23T13:24:52;7.32;;;1.70;;
69789;SDS011;57064;52.046;4.800;2024-03-23T13:27:19;3.47;;;1.23;;
69789;SDS011;57064;52.046;4.800;2024-03-23T13:29:45;9.30;;;1.55;;
69789;SDS011;57064;52.046;4.800;2024-03-23T13:32:12;5.25;;;0.98;;
69789;SDS011;57064;52.046;4.800;2024-03-23T13:34:38;5.20;;;1.20;;
69789;SDS011;57064;52.046;4.800;2024-03-23T13:37:05;7.65;;;1.13;;
69789;SDS011;57064;52.046;4.800;2024-03-23T13:39:32;5.85;;;1.00;;
69789;SDS011;57064;52.046;4.800;2024-03-23T13:41:59;5.60;;;1.15;;
69789;SDS011;57064;52.046;4.800;2024-03-23T13:44:25;10.05;;;2.08;;
69789;SDS011;57064;52.046;4.800;2024-03-23T13:46:51;7.00;;;1.60;;
69789;SDS011;57064;52.046;4.800;2024-03-23T13:51:57;12.73;;;3.80;;
69789;SDS011;57064;52.046;4.800;2024-03-23T13:54:24;11.82;;;2.97;;
69789;SDS011;57064;52.046;4.800;2024-03-23T13:56:51;17.98;;;4.00;;
69789;SDS011;57064;52.046;4.800;2024-03-23T13:59:19;6.57;;;1.60;;
69789;SDS011;57064;52.046;4.800;2024-03-23T14:01:48;9.20;;;1.40;;
69789;SDS011;57064;52.046;4.800;2024-03-23T14:04:14;4.30;;;1.10;;
69789;SDS011;57064;52.046;4.800;2024-03-23T14:06:42;10.27;;;1.20;;
69789;SDS011;57064;52.046;4.800;2024-03-23T14:09:10;3.83;;;0.75;;
69789;SDS011;57064;52.046;4.800;2024-03-23T14:11:38;5.72;;;1.20;;
69789;SDS011;57064;52.046;4.800;2024-03-23T14:14:05;5.30;;;1.05;;
69789;SDS011;57064;52.046;4.800;2024-03-23T14:16:31;1.80;;;0.68;;
69789;SDS011;57064;52.046;4.800;2024-03-23T14:18:58;5.47;;;0.70;;
69789;SDS011;57064;52.046;4.800;2024-03-23T14:21:24;4.15;;;0.60;;
69789;SDS011;57064;52.046;4.800;2024-03-23T14:23:52;5.10;;;0.60;;
69789;SDS011;57064;52.046;4.800;2024-03-23T14:26:21;1.35;;;0.50;;
69789;SDS011;57064;52.046;4.800;2024-03-23T14:28:47;2.25;;;0.43;;
69789;SDS011;57064;52.046;4.800;2024-03-23T14:31:15;3.20;;;0.50;;
69789;SDS011;57064;52.046;4.800;2024-03-23T14:33:41;3.22;;;0.73;;
69789;SDS011;57064;52.046;4.800;2024-03-23T14:36:12;1.05;;;0.50;;
69789;SDS011;57064;52.046;4.800;2024-03-23T14:38:39;5.97;;;1.10;;
69789;SDS011;57064;52.046;4.800;2024-03-23T14:41:05;0.20;;;0.20;;
69789;SDS011;57064;52.046;4.800;2024-03-23T14:43:31;3.47;;;0.52;;
69789;SDS011;57064;52.046;4.800;2024-03-23T14:46:13;8.23;;;1.55;;
69789;SDS011;57064;52.046;4.800;2024-03-23T14:48:40;4.70;;;1.48;;
69789;SDS011;57064;52.046;4.800;2024-03-23T14:51:08;3.30;;;1.00;;
69789;SDS011;57064;52.046;4.800;2024-03-23T14:53:45;3.10;;;1.10;;
69789;SDS011;57064;52.046;4.800;2024-03-23T14:56:11;2.03;;;0.73;;
69789;SDS011;57064;52.046;4.800;2024-03-23T14:58:40;4.13;;;0.95;;
69789;SDS011;57064;52.046;4.800;2024-03-23T15:01:07;2.42;;;0.77;;
69789;SDS011;57064;52.046;4.800;2024-03-23T15:03:34;5.10;;;0.80;;
69789;SDS011;57064;52.046;4.800;2024-03-23T15:06:02;8.00;;;1.13;;
69789;SDS011;57064;52.046;4.800;2024-03-23T15:08:29;8.38;;;1.85;;
69789;SDS011;57064;52.046;4.800;2024-03-23T15:10:58;4.30;;;0.98;;
69789;SDS011;57064;52.046;4.800;2024-03-23T15:13:25;4.82;;;1.10;;
69789;SDS011;57064;52.046;4.800;2024-03-23T15:15:52;6.50;;;1.35;;
69789;SDS011;57064;52.046;4.800;2024-03-23T15:18:18;6.20;;;1.75;;
69789;SDS011;57064;52.046;4.800;2024-03-23T15:23:20;3.45;;;0.82;;
69789;SDS011;57064;52.046;4.800;2024-03-23T15:25:53;5.53;;;0.80;;
69789;SDS011;57064;52.046;4.800;2024-03-23T15:28:26;5.25;;;1.10;;
69789;SDS011;57064;52.046;4.800;2024-03-23T15:31:06;3.03;;;0.82;;
69789;SDS011;57064;52.046;4.800;2024-03-23T15:33:34;4.25;;;1.02;;
69789;SDS011;57064;52.046;4.800;2024-03-23T15:36:01;5.28;;;0.93;;
69789;SDS011;57064;52.046;4.800;2024-03-23T15:38:29;3.58;;;0.52;;
69789;SDS011;57064;52.046;4.800;2024-03-23T15:40:57;4.85;;;1.02;;
69789;SDS011;57064;52.046;4.800;2024-03-23T15:43:23;6.20;;;0.98;;
69789;SDS011;57064;52.046;4.800;2024-03-23T15:45:54;3.53;;;0.98;;
69789;SDS011;57064;52.046;4.800;2024-03-23T15:48:20;6.03;;;1.73;;
69789;SDS011;57064;52.046;4.800;2024-03-23T15:50:50;5.10;;;1.02;;
69789;SDS011;57064;52.046;4.800;2024-03-23T15:53:20;2.22;;;0.80;;
69789;SDS011;57064;52.046;4.800;2024-03-23T15:55:56;3.63;;;0.80;;
69789;SDS011;57064;52.046;4.800;2024-03-23T15:58:23;8.10;;;0.98;;
69789;SDS011;57064;52.046;4.800;2024-03-23T16:00:56;3.47;;;0.82;;
69789;SDS011;57064;52.046;4.800;2024-03-23T16:03:29;3.72;;;0.82;;
69789;SDS011;57064;52.046;4.800;2024-03-23T16:06:00;2.50;;;0.60;;